sensor_id;sensor_type;location;lat;lon;timestamp;pressure;altitude;pressure_sealevel;temperature;humidity
3598;BME280;1813;52.016;8.714;2023-03-31T00:01:20;-16261.94;;;-139.71;75.85
3598;BME280;1813;52.016;8.714;2023-03-31T00:03:55;-16261.94;;;-139.71;75.50
3598;BME280;1813;52.016;8.714;2023-03-31T00:06:38;-16261.94;;;-139.71;75.30
3598;BME280;1813;52.016;8.714;2023-03-31T00:09:14;-16261.94;;;-139.71;75.14
3598;BME280;1813;52.016;8.714;2023-03-31T00:11:51;-16261.94;;;-139.71;75.07
3598;BME280;1813;52.016;8.714;2023-03-31T00:14:25;-16261.94;;;-139.71;75.06
3598;BME280;1813;52.016;8.714;2023-03-31T00:16:59;-16261.94;;;-139.71;75.06
3598;BME280;1813;52.016;8.714;2023-03-31T00:19:34;-16261.94;;;-139.71;75.04
3598;BME280;1813;52.016;8.714;2023-03-31T00:22:12;-16261.94;;;-139.71;75.26
3598;BME280;1813;52.016;8.714;2023-03-31T00:24:48;-16261.94;;;-139.71;75.23
3598;BME280;1813;52.016;8.714;2023-03-31T00:27:22;-16261.94;;;-139.71;75.38
3598;BME280;1813;52.016;8.714;2023-03-31T00:29:59;-16261.94;;;-139.71;75.32
3598;BME280;1813;52.016;8.714;2023-03-31T00:32:33;-16261.94;;;-139.71;75.46
3598;BME280;1813;52.016;8.714;2023-03-31T00:35:08;-16261.94;;;-139.71;75.66
3598;BME280;1813;52.016;8.714;2023-03-31T00:37:45;-16261.94;;;-139.71;75.39
3598;BME280;1813;52.016;8.714;2023-03-31T00:40:19;-16261.94;;;-139.71;75.56
3598;BME280;1813;52.016;8.714;2023-03-31T00:42:53;-16261.94;;;-139.71;75.59
3598;BME280;1813;52.016;8.714;2023-03-31T00:45:30;-16261.94;;;-139.71;75.88
3598;BME280;1813;52.016;8.714;2023-03-31T00:48:07;-16261.94;;;-139.71;76.01
3598;BME280;1813;52.016;8.714;2023-03-31T00:50:48;-16261.94;;;-139.71;76.08
3598;BME280;1813;52.016;8.714;2023-03-31T00:53:29;-16261.94;;;-139.71;75.89
3598;BME280;1813;52.016;8.714;2023-03-31T00:56:08;-16261.94;;;-139.71;76.16
3598;BME280;1813;52.016;8.714;2023-03-31T00:58:44;-16261.94;;;-139.71;76.23
3598;BME280;1813;52.016;8.714;2023-03-31T01:01:21;-16261.94;;;-139.71;76.08
3598;BME280;1813;52.016;8.714;2023-03-31T01:03:56;-16261.94;;;-139.71;76.00
3598;BME280;1813;52.016;8.714;2023-03-31T01:06:32;-16261.94;;;-139.71;76.04
3598;BME280;1813;52.016;8.714;2023-03-31T01:09:09;-16261.94;;;-139.71;76.11
3598;BME280;1813;52.016;8.714;2023-03-31T01:11:44;-16261.94;;;-139.71;75.82
3598;BME280;1813;52.016;8.714;2023-03-31T01:14:20;-16261.94;;;-139.71;75.93
3598;BME280;1813;52.016;8.714;2023-03-31T01:16:54;-16261.94;;;-139.71;75.90
3598;BME280;1813;52.016;8.714;2023-03-31T01:19:35;-16261.94;;;-139.71;76.15
3598;BME280;1813;52.016;8.714;2023-03-31T01:25:51;-16261.94;;;-139.71;75.86
3598;BME280;1813;52.016;8.714;2023-03-31T01:28:33;-16261.94;;;-139.71;76.06
3598;BME280;1813;52.016;8.714;2023-03-31T01:31:31;-16261.94;;;-139.71;75.98
3598;BME280;1813;52.016;8.714;2023-03-31T01:34:41;-16261.94;;;-139.71;76.02
3598;BME280;1813;52.016;8.714;2023-03-31T01:40:45;-16261.94;;;-139.71;76.23
3598;BME280;1813;52.016;8.714;2023-03-31T01:43:25;-16261.94;;;-139.71;76.17
3598;BME280;1813;52.016;8.714;2023-03-31T01:46:10;-16261.94;;;-139.71;76.35
3598;BME280;1813;52.016;8.714;2023-03-31T01:48:55;-16261.94;;;-139.71;76.63
3598;BME280;1813;52.016;8.714;2023-03-31T01:51:34;-16261.94;;;-139.71;76.74
3598;BME280;1813;52.016;8.714;2023-03-31T01:54:18;-16261.94;;;-139.71;76.90
3598;BME280;1813;52.016;8.714;2023-03-31T01:56:58;-16261.94;;;-139.71;77.14
3598;BME280;1813;52.016;8.714;2023-03-31T01:59:36;-16261.94;;;-139.71;77.09
3598;BME280;1813;52.016;8.714;2023-03-31T02:02:14;-16261.94;;;-139.71;77.42
3598;BME280;1813;52.016;8.714;2023-03-31T02:04:53;-16261.94;;;-139.71;77.34
3598;BME280;1813;52.016;8.714;2023-03-31T02:07:33;-16261.94;;;-139.71;77.38
3598;BME280;1813;52.016;8.714;2023-03-31T02:10:11;-16261.94;;;-139.71;77.54
3598;BME280;1813;52.016;8.714;2023-03-31T02:12:49;-16261.94;;;-139.71;77.62
3598;BME280;1813;52.016;8.714;2023-03-31T02:15:26;-16261.94;;;-139.71;77.59
3598;BME280;1813;52.016;8.714;2023-03-31T02:18:03;-16261.94;;;-139.71;77.65
3598;BME280;1813;52.016;8.714;2023-03-31T02:20:42;-16261.94;;;-139.71;77.82
3598;BME280;1813;52.016;8.714;2023-03-31T02:23:21;-16261.94;;;-139.71;77.70
3598;BME280;1813;52.016;8.714;2023-03-31T02:26:01;-16261.94;;;-139.71;77.56
3598;BME280;1813;52.016;8.714;2023-03-31T02:28:39;-16261.94;;;-139.71;77.49
3598;BME280;1813;52.016;8.714;2023-03-31T02:31:24;-16261.94;;;-139.71;77.26
3598;BME280;1813;52.016;8.714;2023-03-31T02:34:01;-16261.94;;;-139.71;77.44
3598;BME280;1813;52.016;8.714;2023-03-31T02:36:36;-16261.94;;;-139.71;77.41
3598;BME280;1813;52.016;8.714;2023-03-31T02:39:13;-16261.94;;;-139.71;77.31
3598;BME280;1813;52.016;8.714;2023-03-31T02:41:48;-16261.94;;;-139.71;77.34
3598;BME280;1813;52.016;8.714;2023-03-31T02:44:27;-16261.94;;;-139.71;77.20
3598;BME280;1813;52.016;8.714;2023-03-31T02:47:01;-16261.94;;;-139.71;77.20
3598;BME280;1813;52.016;8.714;2023-03-31T02:49:39;-16261.94;;;-139.71;77.00
3598;BME280;1813;52.016;8.714;2023-03-31T02:52:31;-16261.94;;;-139.71;76.94
3598;BME280;1813;52.016;8.714;2023-03-31T02:55:26;-16261.94;;;-139.71;76.83
3598;BME280;1813;52.016;8.714;2023-03-31T02:58:29;-16261.94;;;-139.71;76.72
3598;BME280;1813;52.016;8.714;2023-03-31T03:01:17;-16261.94;;;-139.71;76.53
3598;BME280;1813;52.016;8.714;2023-03-31T03:04:02;-16261.94;;;-139.71;76.48
3598;BME280;1813;52.016;8.714;2023-03-31T03:06:45;-16261.94;;;-139.71;76.41
3598;BME280;1813;52.016;8.714;2023-03-31T03:09:35;-16261.94;;;-139.71;76.05
3598;BME280;1813;52.016;8.714;2023-03-31T03:12:22;-16261.94;;;-139.71;75.87
3598;BME280;1813;52.016;8.714;2023-03-31T03:15:01;-16261.94;;;-139.71;76.04
3598;BME280;1813;52.016;8.714;2023-03-31T03:17:42;-16261.94;;;-139.71;75.85
3598;BME280;1813;52.016;8.714;2023-03-31T03:20:19;-16261.94;;;-139.71;75.71
3598;BME280;1813;52.016;8.714;2023-03-31T03:22:53;-16261.94;;;-139.71;75.72
3598;BME280;1813;52.016;8.714;2023-03-31T03:25:27;-16261.94;;;-139.71;75.81
3598;BME280;1813;52.016;8.714;2023-03-31T03:28:00;-16261.94;;;-139.71;75.96
3598;BME280;1813;52.016;8.714;2023-03-31T03:30:34;-16261.94;;;-139.71;76.42
3598;BME280;1813;52.016;8.714;2023-03-31T03:33:11;-16261.94;;;-139.71;76.95
3598;BME280;1813;52.016;8.714;2023-03-31T03:35:46;-16261.94;;;-139.71;77.59
3598;BME280;1813;52.016;8.714;2023-03-31T03:38:20;-16261.94;;;-139.71;77.94
3598;BME280;1813;52.016;8.714;2023-03-31T03:40:54;-16261.94;;;-139.71;78.49
3598;BME280;1813;52.016;8.714;2023-03-31T03:43:28;-16261.94;;;-139.71;79.20
3598;BME280;1813;52.016;8.714;2023-03-31T03:46:02;-16261.94;;;-139.71;79.92
3598;BME280;1813;52.016;8.714;2023-03-31T03:48:38;-16261.94;;;-139.71;80.30
3598;BME280;1813;52.016;8.714;2023-03-31T03:51:12;-16261.94;;;-139.71;80.92
3598;BME280;1813;52.016;8.714;2023-03-31T03:53:46;-16261.94;;;-139.71;81.26
3598;BME280;1813;52.016;8.714;2023-03-31T03:56:20;-16261.94;;;-139.71;81.64
3598;BME280;1813;52.016;8.714;2023-03-31T03:58:54;-16261.94;;;-139.71;81.98
3598;BME280;1813;52.016;8.714;2023-03-31T04:01:28;-16261.94;;;-139.71;82.35
3598;BME280;1813;52.016;8.714;2023-03-31T04:04:05;-16261.94;;;-139.71;82.74
3598;BME280;1813;52.016;8.714;2023-03-31T04:06:39;-16261.94;;;-139.71;83.23
3598;BME280;1813;52.016;8.714;2023-03-31T04:09:13;-16261.94;;;-139.71;83.76
3598;BME280;1813;52.016;8.714;2023-03-31T04:11:47;-16261.94;;;-139.71;83.90
3598;BME280;1813;52.016;8.714;2023-03-31T04:14:20;-16261.94;;;-139.71;84.34
3598;BME280;1813;52.016;8.714;2023-03-31T04:16:55;-16261.94;;;-139.71;84.62
3598;BME280;1813;52.016;8.714;2023-03-31T04:19:32;-16261.94;;;-139.71;84.98
3598;BME280;1813;52.016;8.714;2023-03-31T04:22:06;-16261.94;;;-139.71;85.44
3598;BME280;1813;52.016;8.714;2023-03-31T04:24:41;-16261.94;;;-139.71;85.70
3598;BME280;1813;52.016;8.714;2023-03-31T04:27:16;-16261.94;;;-139.71;85.96
3598;BME280;1813;52.016;8.714;2023-03-31T04:29:50;-16261.94;;;-139.71;86.16
3598;BME280;1813;52.016;8.714;2023-03-31T04:32:24;-16261.94;;;-139.71;86.56
3598;BME280;1813;52.016;8.714;2023-03-31T04:35:05;-16261.94;;;-139.71;86.51
3598;BME280;1813;52.016;8.714;2023-03-31T04:37:39;-16261.94;;;-139.71;86.85
3598;BME280;1813;52.016;8.714;2023-03-31T04:40:13;-16261.94;;;-139.71;86.85
3598;BME280;1813;52.016;8.714;2023-03-31T04:42:47;-16261.94;;;-139.71;87.07
3598;BME280;1813;52.016;8.714;2023-03-31T04:45:37;-16261.94;;;-139.71;86.99
3598;BME280;1813;52.016;8.714;2023-03-31T04:48:13;-16261.94;;;-139.71;87.29
3598;BME280;1813;52.016;8.714;2023-03-31T04:50:50;-16261.94;;;-139.71;87.14
3598;BME280;1813;52.016;8.714;2023-03-31T04:53:23;-16261.94;;;-139.71;87.06
3598;BME280;1813;52.016;8.714;2023-03-31T04:55:58;-16261.94;;;-139.71;86.89
3598;BME280;1813;52.016;8.714;2023-03-31T04:58:32;-16261.94;;;-139.71;86.82
3598;BME280;1813;52.016;8.714;2023-03-31T05:01:06;-16261.94;;;-139.71;86.81
3598;BME280;1813;52.016;8.714;2023-03-31T05:03:43;-16261.94;;;-139.71;86.47
3598;BME280;1813;52.016;8.714;2023-03-31T05:06:20;-16261.94;;;-139.71;86.24
3598;BME280;1813;52.016;8.714;2023-03-31T05:08:54;-16261.94;;;-139.71;86.18
3598;BME280;1813;52.016;8.714;2023-03-31T05:11:27;-16261.94;;;-139.71;85.98
3598;BME280;1813;52.016;8.714;2023-03-31T05:14:03;-16261.94;;;-139.71;85.84
3598;BME280;1813;52.016;8.714;2023-03-31T05:16:37;-16261.94;;;-139.71;85.77
3598;BME280;1813;52.016;8.714;2023-03-31T05:19:11;-16261.94;;;-139.71;85.76
3598;BME280;1813;52.016;8.714;2023-03-31T05:21:48;-16261.94;;;-139.71;85.82
3598;BME280;1813;52.016;8.714;2023-03-31T05:24:21;-16261.94;;;-139.71;85.62
3598;BME280;1813;52.016;8.714;2023-03-31T05:26:57;-16261.94;;;-139.71;85.72
3598;BME280;1813;52.016;8.714;2023-03-31T05:29:31;-16261.94;;;-139.71;85.62
3598;BME280;1813;52.016;8.714;2023-03-31T05:32:06;-16261.94;;;-139.71;85.62
3598;BME280;1813;52.016;8.714;2023-03-31T05:34:40;-16261.94;;;-139.71;85.52
3598;BME280;1813;52.016;8.714;2023-03-31T05:37:24;-16261.94;;;-139.71;85.62
3598;BME280;1813;52.016;8.714;2023-03-31T05:39:58;-16261.94;;;-139.71;85.51
3598;BME280;1813;52.016;8.714;2023-03-31T05:42:34;-16261.94;;;-139.71;85.58
3598;BME280;1813;52.016;8.714;2023-03-31T05:45:08;-16261.94;;;-139.71;85.57
3598;BME280;1813;52.016;8.714;2023-03-31T05:47:47;-16261.94;;;-139.71;85.52
3598;BME280;1813;52.016;8.714;2023-03-31T05:50:21;-16261.94;;;-139.71;85.78
3598;BME280;1813;52.016;8.714;2023-03-31T05:52:58;-16261.94;;;-139.71;85.87
3598;BME280;1813;52.016;8.714;2023-03-31T05:55:34;-16261.94;;;-139.71;85.99
3598;BME280;1813;52.016;8.714;2023-03-31T05:58:08;-16261.94;;;-139.71;86.00
3598;BME280;1813;52.016;8.714;2023-03-31T06:00:42;-16261.94;;;-139.71;85.94
3598;BME280;1813;52.016;8.714;2023-03-31T06:03:17;-16261.94;;;-139.71;86.09
3598;BME280;1813;52.016;8.714;2023-03-31T06:05:52;-16261.94;;;-139.71;86.12
3598;BME280;1813;52.016;8.714;2023-03-31T06:08:29;-16261.94;;;-139.71;86.08
3598;BME280;1813;52.016;8.714;2023-03-31T06:11:03;-16261.94;;;-139.71;86.18
3598;BME280;1813;52.016;8.714;2023-03-31T06:13:38;-16261.94;;;-139.71;86.06
3598;BME280;1813;52.016;8.714;2023-03-31T06:16:16;-16261.94;;;-139.71;86.01
3598;BME280;1813;52.016;8.714;2023-03-31T06:18:50;-16261.94;;;-139.71;85.96
3598;BME280;1813;52.016;8.714;2023-03-31T06:21:25;-16261.94;;;-139.71;85.94
3598;BME280;1813;52.016;8.714;2023-03-31T06:24:02;-16261.94;;;-139.71;85.78
3598;BME280;1813;52.016;8.714;2023-03-31T06:26:35;-16261.94;;;-139.71;85.77
3598;BME280;1813;52.016;8.714;2023-03-31T06:29:09;-16261.94;;;-139.71;85.74
3598;BME280;1813;52.016;8.714;2023-03-31T06:31:43;-16261.94;;;-139.71;85.59
3598;BME280;1813;52.016;8.714;2023-03-31T06:34:17;-16261.94;;;-139.71;85.67
3598;BME280;1813;52.016;8.714;2023-03-31T06:36:51;-16261.94;;;-139.71;85.60
3598;BME280;1813;52.016;8.714;2023-03-31T06:39:27;-16261.94;;;-139.71;85.44
3598;BME280;1813;52.016;8.714;2023-03-31T06:42:01;-16261.94;;;-139.71;85.42
3598;BME280;1813;52.016;8.714;2023-03-31T06:44:42;-16261.94;;;-139.71;85.52
3598;BME280;1813;52.016;8.714;2023-03-31T06:47:16;-16261.94;;;-139.71;85.45
3598;BME280;1813;52.016;8.714;2023-03-31T06:49:50;-16261.94;;;-139.71;85.24
3598;BME280;1813;52.016;8.714;2023-03-31T06:52:24;-16261.94;;;-139.71;85.12
3598;BME280;1813;52.016;8.714;2023-03-31T06:55:01;-16261.94;;;-139.71;84.99
3598;BME280;1813;52.016;8.714;2023-03-31T06:57:35;-16261.94;;;-139.71;84.58
3598;BME280;1813;52.016;8.714;2023-03-31T07:00:10;-16261.94;;;-139.71;84.37
3598;BME280;1813;52.016;8.714;2023-03-31T07:02:44;-16261.94;;;-139.71;84.01
3598;BME280;1813;52.016;8.714;2023-03-31T07:05:17;-16261.94;;;-139.71;83.69
3598;BME280;1813;52.016;8.714;2023-03-31T07:07:58;-16261.94;;;-139.71;83.41
3598;BME280;1813;52.016;8.714;2023-03-31T07:10:35;-16261.94;;;-139.71;83.12
3598;BME280;1813;52.016;8.714;2023-03-31T07:13:09;-16261.94;;;-139.71;82.79
3598;BME280;1813;52.016;8.714;2023-03-31T07:15:43;-16261.94;;;-139.71;82.80
3598;BME280;1813;52.016;8.714;2023-03-31T07:18:18;-16261.94;;;-139.71;82.71
3598;BME280;1813;52.016;8.714;2023-03-31T07:20:55;-16261.94;;;-139.71;82.76
3598;BME280;1813;52.016;8.714;2023-03-31T07:23:30;-16261.94;;;-139.71;82.62
3598;BME280;1813;52.016;8.714;2023-03-31T07:26:06;-16261.94;;;-139.71;83.01
3598;BME280;1813;52.016;8.714;2023-03-31T07:28:41;-16261.94;;;-139.71;82.97
3598;BME280;1813;52.016;8.714;2023-03-31T07:31:15;-16261.94;;;-139.71;83.03
3598;BME280;1813;52.016;8.714;2023-03-31T07:33:49;-16261.94;;;-139.71;83.00
3598;BME280;1813;52.016;8.714;2023-03-31T07:36:23;-16261.94;;;-139.71;83.07
3598;BME280;1813;52.016;8.714;2023-03-31T07:38:57;-16261.94;;;-139.71;83.09
3598;BME280;1813;52.016;8.714;2023-03-31T07:41:33;-16261.94;;;-139.71;82.69
3598;BME280;1813;52.016;8.714;2023-03-31T07:44:07;-16261.94;;;-139.71;82.61
3598;BME280;1813;52.016;8.714;2023-03-31T07:46:42;-16261.94;;;-139.71;82.41
3598;BME280;1813;52.016;8.714;2023-03-31T07:49:16;-16261.94;;;-139.71;82.30
3598;BME280;1813;52.016;8.714;2023-03-31T07:51:50;-16261.94;;;-139.71;81.78
3598;BME280;1813;52.016;8.714;2023-03-31T07:54:24;-16261.94;;;-139.71;81.42
3598;BME280;1813;52.016;8.714;2023-03-31T07:57:01;-16261.94;;;-139.71;81.41
3598;BME280;1813;52.016;8.714;2023-03-31T07:59:36;-16261.94;;;-139.71;81.13
3598;BME280;1813;52.016;8.714;2023-03-31T08:02:10;-16261.94;;;-139.71;80.96
3598;BME280;1813;52.016;8.714;2023-03-31T08:04:46;-16261.94;;;-139.71;81.06
3598;BME280;1813;52.016;8.714;2023-03-31T08:07:20;-16261.94;;;-139.71;81.04
3598;BME280;1813;52.016;8.714;2023-03-31T08:09:55;-16261.94;;;-139.71;80.95
3598;BME280;1813;52.016;8.714;2023-03-31T08:12:32;-16261.94;;;-139.71;80.82
3598;BME280;1813;52.016;8.714;2023-03-31T08:15:07;-16261.94;;;-139.71;80.93
3598;BME280;1813;52.016;8.714;2023-03-31T08:17:41;-16261.94;;;-139.71;81.02
3598;BME280;1813;52.016;8.714;2023-03-31T08:20:15;-16261.94;;;-139.71;80.77
3598;BME280;1813;52.016;8.714;2023-03-31T08:22:49;-16261.94;;;-139.71;80.74
3598;BME280;1813;52.016;8.714;2023-03-31T08:25:23;-16261.94;;;-139.71;80.67
3598;BME280;1813;52.016;8.714;2023-03-31T08:27:59;-16261.94;;;-139.71;80.69
3598;BME280;1813;52.016;8.714;2023-03-31T08:30:35;-16261.94;;;-139.71;80.68
3598;BME280;1813;52.016;8.714;2023-03-31T08:33:09;-16261.94;;;-139.71;80.69
3598;BME280;1813;52.016;8.714;2023-03-31T08:35:44;-16261.94;;;-139.71;81.06
3598;BME280;1813;52.016;8.714;2023-03-31T08:38:18;-16261.94;;;-139.71;81.59
3598;BME280;1813;52.016;8.714;2023-03-31T08:40:58;-16261.94;;;-139.71;81.70
3598;BME280;1813;52.016;8.714;2023-03-31T08:43:39;-16261.94;;;-139.71;82.22
3598;BME280;1813;52.016;8.714;2023-03-31T08:46:16;-16261.94;;;-139.71;82.59
3598;BME280;1813;52.016;8.714;2023-03-31T08:48:53;-16261.94;;;-139.71;82.95
3598;BME280;1813;52.016;8.714;2023-03-31T08:51:30;-16261.94;;;-139.71;83.34
3598;BME280;1813;52.016;8.714;2023-03-31T08:54:09;-16261.94;;;-139.71;83.70
3598;BME280;1813;52.016;8.714;2023-03-31T08:56:47;-16261.94;;;-139.71;84.14
3598;BME280;1813;52.016;8.714;2023-03-31T08:59:28;-16261.94;;;-139.71;84.56
3598;BME280;1813;52.016;8.714;2023-03-31T09:02:11;-16261.94;;;-139.71;84.49
3598;BME280;1813;52.016;8.714;2023-03-31T09:05:16;-16261.94;;;-139.71;84.59
3598;BME280;1813;52.016;8.714;2023-03-31T09:07:59;-16261.94;;;-139.71;84.96
3598;BME280;1813;52.016;8.714;2023-03-31T09:10:50;-16261.94;;;-139.71;84.86
3598;BME280;1813;52.016;8.714;2023-03-31T09:13:39;-16261.94;;;-139.71;84.74
3598;BME280;1813;52.016;8.714;2023-03-31T09:16:21;-16261.94;;;-139.71;85.01
3598;BME280;1813;52.016;8.714;2023-03-31T09:19:00;-16261.94;;;-139.71;84.76
3598;BME280;1813;52.016;8.714;2023-03-31T09:21:36;-16261.94;;;-139.71;84.89
3598;BME280;1813;52.016;8.714;2023-03-31T09:24:15;-16261.94;;;-139.71;84.97
3598;BME280;1813;52.016;8.714;2023-03-31T09:26:52;-16261.94;;;-139.71;85.20
3598;BME280;1813;52.016;8.714;2023-03-31T09:29:29;-16261.94;;;-139.71;85.00
3598;BME280;1813;52.016;8.714;2023-03-31T09:32:13;-16261.94;;;-139.71;85.13
3598;BME280;1813;52.016;8.714;2023-03-31T09:34:51;-16261.94;;;-139.71;85.41
3598;BME280;1813;52.016;8.714;2023-03-31T09:37:29;-16261.94;;;-139.71;85.49
3598;BME280;1813;52.016;8.714;2023-03-31T09:40:05;-16261.94;;;-139.71;85.57
3598;BME280;1813;52.016;8.714;2023-03-31T09:42:41;-16261.94;;;-139.71;85.48
3598;BME280;1813;52.016;8.714;2023-03-31T09:45:17;-16261.94;;;-139.71;85.77
3598;BME280;1813;52.016;8.714;2023-03-31T09:47:56;-16261.94;;;-139.71;85.91
3598;BME280;1813;52.016;8.714;2023-03-31T09:50:32;-16261.94;;;-139.71;85.80
3598;BME280;1813;52.016;8.714;2023-03-31T09:53:15;-16261.94;;;-139.71;86.06
3598;BME280;1813;52.016;8.714;2023-03-31T09:55:52;-16261.94;;;-139.71;86.04
3598;BME280;1813;52.016;8.714;2023-03-31T09:58:26;-16261.94;;;-139.71;86.12
3598;BME280;1813;52.016;8.714;2023-03-31T10:01:03;-16261.94;;;-139.71;86.32
3598;BME280;1813;52.016;8.714;2023-03-31T10:03:49;-16261.94;;;-139.71;86.10
3598;BME280;1813;52.016;8.714;2023-03-31T10:06:23;-16261.94;;;-139.71;86.31
3598;BME280;1813;52.016;8.714;2023-03-31T10:09:00;-16261.94;;;-139.71;86.38
3598;BME280;1813;52.016;8.714;2023-03-31T10:11:35;-16261.94;;;-139.71;86.49
3598;BME280;1813;52.016;8.714;2023-03-31T10:14:12;-16261.94;;;-139.71;86.54
3598;BME280;1813;52.016;8.714;2023-03-31T10:16:49;-16261.94;;;-139.71;86.89
3598;BME280;1813;52.016;8.714;2023-03-31T10:19:31;-16261.94;;;-139.71;86.72
3598;BME280;1813;52.016;8.714;2023-03-31T10:22:12;-16261.94;;;-139.71;86.90
3598;BME280;1813;52.016;8.714;2023-03-31T10:24:48;-16261.94;;;-139.71;86.74
3598;BME280;1813;52.016;8.714;2023-03-31T10:27:24;-16261.94;;;-139.71;86.77
3598;BME280;1813;52.016;8.714;2023-03-31T10:30:01;-16261.94;;;-139.71;86.74
3598;BME280;1813;52.016;8.714;2023-03-31T10:32:38;-16261.94;;;-139.71;86.72
3598;BME280;1813;52.016;8.714;2023-03-31T10:35:23;-16261.94;;;-139.71;86.72
3598;BME280;1813;52.016;8.714;2023-03-31T10:38:02;-16261.94;;;-139.71;86.93
3598;BME280;1813;52.016;8.714;2023-03-31T10:40:49;-16261.94;;;-139.71;87.02
3598;BME280;1813;52.016;8.714;2023-03-31T10:43:28;-16261.94;;;-139.71;87.05
3598;BME280;1813;52.016;8.714;2023-03-31T10:46:02;-16261.94;;;-139.71;87.30
3598;BME280;1813;52.016;8.714;2023-03-31T10:48:38;-16261.94;;;-139.71;87.34
3598;BME280;1813;52.016;8.714;2023-03-31T10:51:19;-16261.94;;;-139.71;87.12
3598;BME280;1813;52.016;8.714;2023-03-31T10:53:55;-16261.94;;;-139.71;87.07
3598;BME280;1813;52.016;8.714;2023-03-31T10:56:39;-16261.94;;;-139.71;86.70
3598;BME280;1813;52.016;8.714;2023-03-31T10:59:26;-16261.94;;;-139.71;86.61
3598;BME280;1813;52.016;8.714;2023-03-31T11:02:33;-16261.94;;;-139.71;85.87
3598;BME280;1813;52.016;8.714;2023-03-31T11:05:13;-16261.94;;;-139.71;85.51
3598;BME280;1813;52.016;8.714;2023-03-31T11:08:04;-16261.94;;;-139.71;85.51
3598;BME280;1813;52.016;8.714;2023-03-31T11:10:59;-16261.94;;;-139.71;85.11
3598;BME280;1813;52.016;8.714;2023-03-31T11:13:41;-16261.94;;;-139.71;84.57
3598;BME280;1813;52.016;8.714;2023-03-31T11:16:24;-16261.94;;;-139.71;84.84
3598;BME280;1813;52.016;8.714;2023-03-31T11:19:15;-16261.94;;;-139.71;84.06
3598;BME280;1813;52.016;8.714;2023-03-31T11:21:58;-16261.94;;;-139.71;83.71
3598;BME280;1813;52.016;8.714;2023-03-31T11:28:17;-16261.94;;;-139.71;82.43
3598;BME280;1813;52.016;8.714;2023-03-31T11:30:57;-16261.94;;;-139.71;82.16
3598;BME280;1813;52.016;8.714;2023-03-31T11:33:55;-16261.94;;;-139.71;81.46
3598;BME280;1813;52.016;8.714;2023-03-31T11:36:51;-16261.94;;;-139.71;81.14
3598;BME280;1813;52.016;8.714;2023-03-31T11:39:38;-16261.94;;;-139.71;81.60
3598;BME280;1813;52.016;8.714;2023-03-31T11:42:24;-16261.94;;;-139.71;81.53
3598;BME280;1813;52.016;8.714;2023-03-31T11:45:02;-16261.94;;;-139.71;82.10
3598;BME280;1813;52.016;8.714;2023-03-31T11:47:39;-16261.94;;;-139.71;82.13
3598;BME280;1813;52.016;8.714;2023-03-31T11:50:17;-16261.94;;;-139.71;81.97
3598;BME280;1813;52.016;8.714;2023-03-31T11:52:57;-16261.94;;;-139.71;82.22
3598;BME280;1813;52.016;8.714;2023-03-31T11:55:33;-16261.94;;;-139.71;82.37
3598;BME280;1813;52.016;8.714;2023-03-31T11:58:14;-16261.94;;;-139.71;82.81
3598;BME280;1813;52.016;8.714;2023-03-31T12:00:52;-16261.94;;;-139.71;82.76
3598;BME280;1813;52.016;8.714;2023-03-31T12:03:34;-16261.94;;;-139.71;82.21
3598;BME280;1813;52.016;8.714;2023-03-31T12:06:13;-16261.94;;;-139.71;82.68
3598;BME280;1813;52.016;8.714;2023-03-31T12:08:57;-16261.94;;;-139.71;83.01
3598;BME280;1813;52.016;8.714;2023-03-31T12:11:40;-16261.94;;;-139.71;83.31
3598;BME280;1813;52.016;8.714;2023-03-31T12:14:26;-16261.94;;;-139.71;83.12
3598;BME280;1813;52.016;8.714;2023-03-31T12:17:09;-16261.94;;;-139.71;82.97
3598;BME280;1813;52.016;8.714;2023-03-31T12:19:49;-16261.94;;;-139.71;83.16
3598;BME280;1813;52.016;8.714;2023-03-31T12:22:27;-16261.94;;;-139.71;83.51
3598;BME280;1813;52.016;8.714;2023-03-31T12:25:02;-16261.94;;;-139.71;83.01
3598;BME280;1813;52.016;8.714;2023-03-31T12:27:38;-16261.94;;;-139.71;82.84
3598;BME280;1813;52.016;8.714;2023-03-31T12:30:20;-16261.94;;;-139.71;82.50
3598;BME280;1813;52.016;8.714;2023-03-31T12:32:59;-16261.94;;;-139.71;81.40
3598;BME280;1813;52.016;8.714;2023-03-31T12:35:41;-16261.94;;;-139.71;80.99
3598;BME280;1813;52.016;8.714;2023-03-31T12:38:29;-16261.94;;;-139.71;80.12
3598;BME280;1813;52.016;8.714;2023-03-31T12:41:10;-16261.94;;;-139.71;79.40
3598;BME280;1813;52.016;8.714;2023-03-31T12:43:56;-16261.94;;;-139.71;78.71
3598;BME280;1813;52.016;8.714;2023-03-31T12:46:49;-16261.94;;;-139.71;77.94
3598;BME280;1813;52.016;8.714;2023-03-31T12:49:40;-16261.94;;;-139.71;77.44
3598;BME280;1813;52.016;8.714;2023-03-31T12:52:21;-16261.94;;;-139.71;76.80
3598;BME280;1813;52.016;8.714;2023-03-31T13:01:10;-16261.94;;;-139.71;75.00
3598;BME280;1813;52.016;8.714;2023-03-31T13:04:07;-16261.94;;;-139.71;74.85
3598;BME280;1813;52.016;8.714;2023-03-31T13:06:56;-16261.94;;;-139.71;74.57
3598;BME280;1813;52.016;8.714;2023-03-31T13:09:45;-16261.94;;;-139.71;75.04
3598;BME280;1813;52.016;8.714;2023-03-31T13:12:24;-16261.94;;;-139.71;75.10
3598;BME280;1813;52.016;8.714;2023-03-31T13:15:03;-16261.94;;;-139.71;75.57
3598;BME280;1813;52.016;8.714;2023-03-31T13:17:38;-16261.94;;;-139.71;74.19
3598;BME280;1813;52.016;8.714;2023-03-31T13:20:31;-16261.94;;;-139.71;73.18
3598;BME280;1813;52.016;8.714;2023-03-31T13:23:16;-16261.94;;;-139.71;72.34
3598;BME280;1813;52.016;8.714;2023-03-31T13:25:52;-16261.94;;;-139.71;72.41
3598;BME280;1813;52.016;8.714;2023-03-31T13:28:42;-16261.94;;;-139.71;73.58
3598;BME280;1813;52.016;8.714;2023-03-31T13:31:16;-16261.94;;;-139.71;73.67
3598;BME280;1813;52.016;8.714;2023-03-31T13:33:55;-16261.94;;;-139.71;73.73
3598;BME280;1813;52.016;8.714;2023-03-31T13:36:57;-16261.94;;;-139.71;73.76
3598;BME280;1813;52.016;8.714;2023-03-31T13:39:54;-16261.94;;;-139.71;75.09
3598;BME280;1813;52.016;8.714;2023-03-31T13:42:52;-16261.94;;;-139.71;76.82
3598;BME280;1813;52.016;8.714;2023-03-31T13:45:45;-16261.94;;;-139.71;77.75
3598;BME280;1813;52.016;8.714;2023-03-31T13:48:31;-16261.94;;;-139.71;79.03
3598;BME280;1813;52.016;8.714;2023-03-31T13:51:18;-16261.94;;;-139.71;79.41
3598;BME280;1813;52.016;8.714;2023-03-31T13:54:28;-16261.94;;;-139.71;80.18
3598;BME280;1813;52.016;8.714;2023-03-31T13:57:27;-16261.94;;;-139.71;79.62
3598;BME280;1813;52.016;8.714;2023-03-31T14:00:30;-16261.94;;;-139.71;78.83
3598;BME280;1813;52.016;8.714;2023-03-31T14:03:21;-16261.94;;;-139.71;78.48
3598;BME280;1813;52.016;8.714;2023-03-31T14:06:01;-16261.94;;;-139.71;78.48
3598;BME280;1813;52.016;8.714;2023-03-31T14:08:47;-16261.94;;;-139.71;78.50